sensor_id;sensor_type;location;lat;lon;timestamp;temperature;humidity
18105;DHT22;9179;50.968;3.134;2023-11-21T00:00:46;11.40;99.90
18105;DHT22;9179;50.968;3.134;2023-11-21T00:03:13;11.40;99.90
18105;DHT22;9179;50.968;3.134;2023-11-21T00:05:41;11.50;99.90
18105;DHT22;9179;50.968;3.134;2023-11-21T00:08:09;11.60;99.90
18105;DHT22;9179;50.968;3.134;2023-11-21T00:10:37;11.60;99.90
18105;DHT22;9179;50.968;3.134;2023-11-21T00:13:04;11.60;99.90
18105;DHT22;9179;50.968;3.134;2023-11-21T00:15:32;11.50;99.90
18105;DHT22;9179;50.968;3.134;2023-11-21T00:18:00;11.50;99.90
18105;DHT22;9179;50.968;3.134;2023-11-21T00:20:27;11.40;99.90
18105;DHT22;9179;50.968;3.134;2023-11-21T00:22:54;11.30;99.90
18105;DHT22;9179;50.968;3.134;2023-11-21T00:25:22;11.20;99.90
18105;DHT22;9179;50.968;3.134;2023-11-21T00:27:50;11.10;99.90
18105;DHT22;9179;50.968;3.134;2023-11-21T00:30:18;11.10;99.90
18105;DHT22;9179;50.968;3.134;2023-11-21T00:32:45;11.00;99.90
18105;DHT22;9179;50.968;3.134;2023-11-21T00:35:12;11.00;99.90
18105;DHT22;9179;50.968;3.134;2023-11-21T00:37:40;11.00;99.90
18105;DHT22;9179;50.968;3.134;2023-11-21T00:40:09;11.00;99.90
18105;DHT22;9179;50.968;3.134;2023-11-21T00:42:38;11.10;99.90
18105;DHT22;9179;50.968;3.134;2023-11-21T00:45:07;11.10;99.90
18105;DHT22;9179;50.968;3.134;2023-11-21T00:47:34;11.10;99.90
18105;DHT22;9179;50.968;3.134;2023-11-21T00:50:01;11.10;99.90
18105;DHT22;9179;50.968;3.134;2023-11-21T00:52:28;11.10;99.90
18105;DHT22;9179;50.968;3.134;2023-11-21T00:54:55;11.00;99.90
18105;DHT22;9179;50.968;3.134;2023-11-21T00:57:24;11.00;99.90
18105;DHT22;9179;50.968;3.134;2023-11-21T00:59:53;10.90;99.90
18105;DHT22;9179;50.968;3.134;2023-11-21T01:02:20;11.00;99.90
18105;DHT22;9179;50.968;3.134;2023-11-21T01:04:47;11.00;99.90
18105;DHT22;9179;50.968;3.134;2023-11-21T01:07:14;11.10;99.90
18105;DHT22;9179;50.968;3.134;2023-11-21T01:09:41;11.10;99.90
18105;DHT22;9179;50.968;3.134;2023-11-21T01:12:09;11.20;99.90
18105;DHT22;9179;50.968;3.134;2023-11-21T01:14:37;11.30;99.90
18105;DHT22;9179;50.968;3.134;2023-11-21T01:17:05;11.30;99.90
18105;DHT22;9179;50.968;3.134;2023-11-21T01:19:32;11.40;99.90
18105;DHT22;9179;50.968;3.134;2023-11-21T01:21:59;11.40;99.90
18105;DHT22;9179;50.968;3.134;2023-11-21T01:24:26;11.50;99.90
18105;DHT22;9179;50.968;3.134;2023-11-21T01:26:53;11.60;99.90
18105;DHT22;9179;50.968;3.134;2023-11-21T01:29:21;11.70;99.90
18105;DHT22;9179;50.968;3.134;2023-11-21T01:31:48;11.80;99.90
18105;DHT22;9179;50.968;3.134;2023-11-21T01:34:16;11.70;99.90
18105;DHT22;9179;50.968;3.134;2023-11-21T01:36:45;11.80;99.90
18105;DHT22;9179;50.968;3.134;2023-11-21T01:39:13;11.80;99.90
18105;DHT22;9179;50.968;3.134;2023-11-21T01:41:42;11.80;99.90
18105;DHT22;9179;50.968;3.134;2023-11-21T01:44:09;11.80;99.90
18105;DHT22;9179;50.968;3.134;2023-11-21T01:46:38;11.90;99.90
18105;DHT22;9179;50.968;3.134;2023-11-21T01:49:05;11.90;99.90
18105;DHT22;9179;50.968;3.134;2023-11-21T01:51:36;11.90;99.90
18105;DHT22;9179;50.968;3.134;2023-11-21T01:54:04;12.00;99.90
18105;DHT22;9179;50.968;3.134;2023-11-21T01:56:32;12.00;99.90
18105;DHT22;9179;50.968;3.134;2023-11-21T01:58:59;12.10;99.90
18105;DHT22;9179;50.968;3.134;2023-11-21T02:01:26;12.10;99.90
18105;DHT22;9179;50.968;3.134;2023-11-21T02:03:53;12.10;99.90
18105;DHT22;9179;50.968;3.134;2023-11-21T02:06:21;12.10;99.90
18105;DHT22;9179;50.968;3.134;2023-11-21T02:08:51;12.10;99.90
18105;DHT22;9179;50.968;3.134;2023-11-21T02:11:19;12.10;99.90
18105;DHT22;9179;50.968;3.134;2023-11-21T02:13:46;12.10;99.90
18105;DHT22;9179;50.968;3.134;2023-11-21T02:16:15;12.10;99.90
18105;DHT22;9179;50.968;3.134;2023-11-21T02:18:42;12.10;99.90
18105;DHT22;9179;50.968;3.134;2023-11-21T02:21:09;12.10;99.90
18105;DHT22;9179;50.968;3.134;2023-11-21T02:23:38;12.10;99.90
18105;DHT22;9179;50.968;3.134;2023-11-21T02:26:10;12.20;99.90
18105;DHT22;9179;50.968;3.134;2023-11-21T02:28:37;12.30;99.90
18105;DHT22;9179;50.968;3.134;2023-11-21T02:31:04;12.30;99.90
18105;DHT22;9179;50.968;3.134;2023-11-21T02:33:33;12.20;99.90
18105;DHT22;9179;50.968;3.134;2023-11-21T02:36:00;12.30;99.90
18105;DHT22;9179;50.968;3.134;2023-11-21T02:38:27;12.20;99.90
18105;DHT22;9179;50.968;3.134;2023-11-21T02:40:57;12.20;99.90
18105;DHT22;9179;50.968;3.134;2023-11-21T02:43:25;12.20;99.90
18105;DHT22;9179;50.968;3.134;2023-11-21T02:45:52;12.30;99.90
18105;DHT22;9179;50.968;3.134;2023-11-21T02:48:19;12.30;99.90
18105;DHT22;9179;50.968;3.134;2023-11-21T02:50:46;12.30;99.90
18105;DHT22;9179;50.968;3.134;2023-11-21T02:53:13;12.30;99.90
18105;DHT22;9179;50.968;3.134;2023-11-21T02:55:40;12.30;99.90
18105;DHT22;9179;50.968;3.134;2023-11-21T02:58:09;12.10;99.90
18105;DHT22;9179;50.968;3.134;2023-11-21T03:00:36;12.20;99.90
18105;DHT22;9179;50.968;3.134;2023-11-21T03:03:03;12.20;99.90
18105;DHT22;9179;50.968;3.134;2023-11-21T03:05:30;12.30;99.90
18105;DHT22;9179;50.968;3.134;2023-11-21T03:07:57;12.30;99.90
18105;DHT22;9179;50.968;3.134;2023-11-21T03:10:24;12.30;99.90
18105;DHT22;9179;50.968;3.134;2023-11-21T03:12:51;12.30;99.90
18105;DHT22;9179;50.968;3.134;2023-11-21T03:15:19;12.30;99.90
18105;DHT22;9179;50.968;3.134;2023-11-21T03:17:46;12.20;99.90
18105;DHT22;9179;50.968;3.134;2023-11-21T03:20:15;12.20;99.90
18105;DHT22;9179;50.968;3.134;2023-11-21T03:22:42;12.20;99.90
18105;DHT22;9179;50.968;3.134;2023-11-21T03:25:09;12.30;99.90
18105;DHT22;9179;50.968;3.134;2023-11-21T03:27:37;12.30;99.90
18105;DHT22;9179;50.968;3.134;2023-11-21T03:30:07;12.30;99.90
18105;DHT22;9179;50.968;3.134;2023-11-21T03:32:37;12.10;99.90
18105;DHT22;9179;50.968;3.134;2023-11-21T03:35:04;12.20;99.90
18105;DHT22;9179;50.968;3.134;2023-11-21T03:37:31;12.30;99.90
18105;DHT22;9179;50.968;3.134;2023-11-21T03:39:58;12.30;99.90
18105;DHT22;9179;50.968;3.134;2023-11-21T03:42:26;12.30;99.90
18105;DHT22;9179;50.968;3.134;2023-11-21T03:44:53;12.30;99.90
18105;DHT22;9179;50.968;3.134;2023-11-21T03:47:20;12.30;99.90
18105;DHT22;9179;50.968;3.134;2023-11-21T03:49:48;12.30;99.90
18105;DHT22;9179;50.968;3.134;2023-11-21T03:52:15;12.30;99.90
18105;DHT22;9179;50.968;3.134;2023-11-21T03:54:42;12.30;99.90
18105;DHT22;9179;50.968;3.134;2023-11-21T03:57:09;12.30;99.90
18105;DHT22;9179;50.968;3.134;2023-11-21T03:59:40;12.30;99.90
18105;DHT22;9179;50.968;3.134;2023-11-21T04:02:07;12.40;99.90
18105;DHT22;9179;50.968;3.134;2023-11-21T04:04:34;12.40;99.90
18105;DHT22;9179;50.968;3.134;2023-11-21T04:07:03;12.40;99.90
18105;DHT22;9179;50.968;3.134;2023-11-21T04:09:30;12.40;99.90
18105;DHT22;9179;50.968;3.134;2023-11-21T04:11:57;12.30;99.90
18105;DHT22;9179;50.968;3.134;2023-11-21T04:14:24;12.30;99.90
18105;DHT22;9179;50.968;3.134;2023-11-21T04:16:51;12.30;99.90
18105;DHT22;9179;50.968;3.134;2023-11-21T04:19:19;12.30;99.90
18105;DHT22;9179;50.968;3.134;2023-11-21T04:21:46;12.40;99.90
18105;DHT22;9179;50.968;3.134;2023-11-21T04:24:14;12.50;99.90
18105;DHT22;9179;50.968;3.134;2023-11-21T04:26:41;12.40;99.90
18105;DHT22;9179;50.968;3.134;2023-11-21T04:29:08;12.50;99.90
18105;DHT22;9179;50.968;3.134;2023-11-21T04:31:35;12.60;99.90
18105;DHT22;9179;50.968;3.134;2023-11-21T04:34:03;12.60;99.90
18105;DHT22;9179;50.968;3.134;2023-11-21T04:36:30;12.60;99.90
18105;DHT22;9179;50.968;3.134;2023-11-21T04:38:58;12.60;99.90
18105;DHT22;9179;50.968;3.134;2023-11-21T04:41:26;12.50;99.90
18105;DHT22;9179;50.968;3.134;2023-11-21T04:43:53;12.50;99.90
18105;DHT22;9179;50.968;3.134;2023-11-21T04:46:20;12.60;99.90
18105;DHT22;9179;50.968;3.134;2023-11-21T04:48:47;12.50;99.90
18105;DHT22;9179;50.968;3.134;2023-11-21T04:51:14;12.50;99.90
18105;DHT22;9179;50.968;3.134;2023-11-21T04:53:42;12.40;99.90
18105;DHT22;9179;50.968;3.134;2023-11-21T04:56:09;12.40;99.90
18105;DHT22;9179;50.968;3.134;2023-11-21T04:58:38;12.30;99.90
18105;DHT22;9179;50.968;3.134;2023-11-21T05:01:06;12.30;99.90
18105;DHT22;9179;50.968;3.134;2023-11-21T05:03:34;12.40;99.90
18105;DHT22;9179;50.968;3.134;2023-11-21T05:06:01;12.20;99.90
18105;DHT22;9179;50.968;3.134;2023-11-21T05:08:30;12.30;99.90
18105;DHT22;9179;50.968;3.134;2023-11-21T05:10:58;12.40;99.90
18105;DHT22;9179;50.968;3.134;2023-11-21T05:13:25;12.40;99.90
18105;DHT22;9179;50.968;3.134;2023-11-21T05:15:54;12.40;99.90
18105;DHT22;9179;50.968;3.134;2023-11-21T05:18:22;12.40;99.90
18105;DHT22;9179;50.968;3.134;2023-11-21T05:20:51;12.40;99.90
18105;DHT22;9179;50.968;3.134;2023-11-21T05:23:19;12.40;99.90
18105;DHT22;9179;50.968;3.134;2023-11-21T05:25:46;12.40;99.90
18105;DHT22;9179;50.968;3.134;2023-11-21T05:28:13;12.40;99.90
18105;DHT22;9179;50.968;3.134;2023-11-21T05:30:40;12.30;99.90
18105;DHT22;9179;50.968;3.134;2023-11-21T05:33:08;12.20;99.90
18105;DHT22;9179;50.968;3.134;2023-11-21T05:35:35;12.20;99.90
18105;DHT22;9179;50.968;3.134;2023-11-21T05:38:02;12.30;99.90
18105;DHT22;9179;50.968;3.134;2023-11-21T05:40:30;12.40;99.90
18105;DHT22;9179;50.968;3.134;2023-11-21T05:42:58;12.50;99.90
18105;DHT22;9179;50.968;3.134;2023-11-21T05:45:25;12.40;99.90
18105;DHT22;9179;50.968;3.134;2023-11-21T05:47:54;12.40;99.90
18105;DHT22;9179;50.968;3.134;2023-11-21T05:50:23;12.40;99.90
18105;DHT22;9179;50.968;3.134;2023-11-21T05:52:50;12.40;99.90
18105;DHT22;9179;50.968;3.134;2023-11-21T05:55:17;12.40;99.90
18105;DHT22;9179;50.968;3.134;2023-11-21T05:57:46;12.40;99.90
18105;DHT22;9179;50.968;3.134;2023-11-21T06:00:15;12.40;99.90
18105;DHT22;9179;50.968;3.134;2023-11-21T06:02:46;12.40;99.90
18105;DHT22;9179;50.968;3.134;2023-11-21T06:05:13;12.40;99.90
18105;DHT22;9179;50.968;3.134;2023-11-21T06:07:41;12.30;99.90
18105;DHT22;9179;50.968;3.134;2023-11-21T06:10:10;12.20;99.90
18105;DHT22;9179;50.968;3.134;2023-11-21T06:12:38;12.30;99.90
18105;DHT22;9179;50.968;3.134;2023-11-21T06:15:09;12.30;99.90
18105;DHT22;9179;50.968;3.134;2023-11-21T06:17:39;12.30;99.90
18105;DHT22;9179;50.968;3.134;2023-11-21T06:20:07;12.10;99.90
18105;DHT22;9179;50.968;3.134;2023-11-21T06:22:36;12.00;99.90
18105;DHT22;9179;50.968;3.134;2023-11-21T06:25:06;11.90;99.90
18105;DHT22;9179;50.968;3.134;2023-11-21T06:27:34;11.80;99.90
18105;DHT22;9179;50.968;3.134;2023-11-21T06:30:02;11.70;99.90
18105;DHT22;9179;50.968;3.134;2023-11-21T06:32:29;11.70;99.90
18105;DHT22;9179;50.968;3.134;2023-11-21T06:34:56;11.60;99.90
18105;DHT22;9179;50.968;3.134;2023-11-21T06:37:25;11.70;99.90
18105;DHT22;9179;50.968;3.134;2023-11-21T06:39:52;11.70;99.90
18105;DHT22;9179;50.968;3.134;2023-11-21T06:42:20;11.80;99.90
18105;DHT22;9179;50.968;3.134;2023-11-21T06:44:48;12.00;99.90
18105;DHT22;9179;50.968;3.134;2023-11-21T06:47:17;12.10;99.90
18105;DHT22;9179;50.968;3.134;2023-11-21T06:49:47;12.30;99.90
18105;DHT22;9179;50.968;3.134;2023-11-21T06:52:14;12.40;99.90
18105;DHT22;9179;50.968;3.134;2023-11-21T06:54:41;12.50;99.90
18105;DHT22;9179;50.968;3.134;2023-11-21T06:57:08;12.50;99.90
18105;DHT22;9179;50.968;3.134;2023-11-21T06:59:37;12.40;99.90
18105;DHT22;9179;50.968;3.134;2023-11-21T07:02:04;12.40;99.90
18105;DHT22;9179;50.968;3.134;2023-11-21T07:04:32;12.20;99.90
18105;DHT22;9179;50.968;3.134;2023-11-21T07:06:59;12.30;99.90
18105;DHT22;9179;50.968;3.134;2023-11-21T07:09:26;12.30;99.90
18105;DHT22;9179;50.968;3.134;2023-11-21T07:11:53;12.30;99.90
18105;DHT22;9179;50.968;3.134;2023-11-21T07:14:20;12.30;99.90
18105;DHT22;9179;50.968;3.134;2023-11-21T07:16:49;12.20;99.90
18105;DHT22;9179;50.968;3.134;2023-11-21T07:19:18;12.30;99.90
18105;DHT22;9179;50.968;3.134;2023-11-21T07:21:45;12.40;99.90
18105;DHT22;9179;50.968;3.134;2023-11-21T07:24:12;12.20;99.90
18105;DHT22;9179;50.968;3.134;2023-11-21T07:26:39;12.20;99.90
18105;DHT22;9179;50.968;3.134;2023-11-21T07:29:06;12.20;99.90
18105;DHT22;9179;50.968;3.134;2023-11-21T07:31:33;12.40;99.90
18105;DHT22;9179;50.968;3.134;2023-11-21T07:34:02;12.40;99.90
18105;DHT22;9179;50.968;3.134;2023-11-21T07:36:29;12.40;99.90
18105;DHT22;9179;50.968;3.134;2023-11-21T07:38:56;12.50;99.90
18105;DHT22;9179;50.968;3.134;2023-11-21T07:41:23;12.50;99.90
18105;DHT22;9179;50.968;3.134;2023-11-21T07:43:50;12.30;99.90
18105;DHT22;9179;50.968;3.134;2023-11-21T07:46:17;12.30;99.90
18105;DHT22;9179;50.968;3.134;2023-11-21T07:48:45;12.30;99.90
18105;DHT22;9179;50.968;3.134;2023-11-21T07:51:14;12.30;99.90
18105;DHT22;9179;50.968;3.134;2023-11-21T07:53:41;12.30;99.90
18105;DHT22;9179;50.968;3.134;2023-11-21T07:56:09;12.20;99.90
18105;DHT22;9179;50.968;3.134;2023-11-21T07:58:36;12.20;99.90
18105;DHT22;9179;50.968;3.134;2023-11-21T08:01:03;12.30;99.90
18105;DHT22;9179;50.968;3.134;2023-11-21T08:03:31;12.30;99.90
18105;DHT22;9179;50.968;3.134;2023-11-21T08:05:58;12.30;99.90
18105;DHT22;9179;50.968;3.134;2023-11-21T08:08:26;12.50;99.90
18105;DHT22;9179;50.968;3.134;2023-11-21T08:10:53;12.50;99.90
18105;DHT22;9179;50.968;3.134;2023-11-21T08:13:23;12.60;99.90
18105;DHT22;9179;50.968;3.134;2023-11-21T08:15:50;12.60;99.90
18105;DHT22;9179;50.968;3.134;2023-11-21T08:18:17;12.50;99.90
18105;DHT22;9179;50.968;3.134;2023-11-21T08:20:44;12.60;99.90
18105;DHT22;9179;50.968;3.134;2023-11-21T08:23:14;12.70;99.90
18105;DHT22;9179;50.968;3.134;2023-11-21T08:25:43;12.70;99.90
18105;DHT22;9179;50.968;3.134;2023-11-21T08:28:11;12.90;99.90
18105;DHT22;9179;50.968;3.134;2023-11-21T08:30:38;12.90;99.90
18105;DHT22;9179;50.968;3.134;2023-11-21T08:33:07;13.10;99.90
18105;DHT22;9179;50.968;3.134;2023-11-21T08:35:34;13.30;99.90
18105;DHT22;9179;50.968;3.134;2023-11-21T08:38:02;13.40;99.90
18105;DHT22;9179;50.968;3.134;2023-11-21T08:40:30;13.60;99.90
18105;DHT22;9179;50.968;3.134;2023-11-21T08:42:58;13.70;99.90
18105;DHT22;9179;50.968;3.134;2023-11-21T08:45:26;13.90;99.90
18105;DHT22;9179;50.968;3.134;2023-11-21T08:47:53;14.20;99.90
18105;DHT22;9179;50.968;3.134;2023-11-21T08:50:20;14.40;99.90
18105;DHT22;9179;50.968;3.134;2023-11-21T08:52:48;14.30;99.90
18105;DHT22;9179;50.968;3.134;2023-11-21T08:55:15;14.10;99.90
18105;DHT22;9179;50.968;3.134;2023-11-21T08:57:44;14.00;99.90
18105;DHT22;9179;50.968;3.134;2023-11-21T09:00:14;13.70;99.90
18105;DHT22;9179;50.968;3.134;2023-11-21T09:02:42;13.60;99.90
18105;DHT22;9179;50.968;3.134;2023-11-21T09:05:10;13.60;99.90
18105;DHT22;9179;50.968;3.134;2023-11-21T09:07:39;13.80;99.90
18105;DHT22;9179;50.968;3.134;2023-11-21T09:10:07;13.90;99.90
18105;DHT22;9179;50.968;3.134;2023-11-21T09:12:35;13.90;99.90
18105;DHT22;9179;50.968;3.134;2023-11-21T09:15:03;14.00;99.90
18105;DHT22;9179;50.968;3.134;2023-11-21T09:17:33;14.20;99.90
18105;DHT22;9179;50.968;3.134;2023-11-21T09:20:01;14.40;99.90
18105;DHT22;9179;50.968;3.134;2023-11-21T09:22:30;14.80;99.90
18105;DHT22;9179;50.968;3.134;2023-11-21T09:24:58;15.10;99.90
18105;DHT22;9179;50.968;3.134;2023-11-21T09:27:25;15.50;99.90
18105;DHT22;9179;50.968;3.134;2023-11-21T09:29:52;15.90;99.90
18105;DHT22;9179;50.968;3.134;2023-11-21T09:32:20;16.10;99.90
18105;DHT22;9179;50.968;3.134;2023-11-21T09:34:49;16.50;99.90
18105;DHT22;9179;50.968;3.134;2023-11-21T09:37:17;16.50;99.90
18105;DHT22;9179;50.968;3.134;2023-11-21T09:39:45;16.40;99.90
18105;DHT22;9179;50.968;3.134;2023-11-21T09:42:17;16.20;99.90
18105;DHT22;9179;50.968;3.134;2023-11-21T09:44:48;16.10;99.90
18105;DHT22;9179;50.968;3.134;2023-11-21T09:47:19;16.00;99.90
18105;DHT22;9179;50.968;3.134;2023-11-21T09:49:49;16.00;99.90
18105;DHT22;9179;50.968;3.134;2023-11-21T09:52:24;16.10;99.90
18105;DHT22;9179;50.968;3.134;2023-11-21T09:54:53;16.30;99.90
18105;DHT22;9179;50.968;3.134;2023-11-21T09:57:20;16.30;99.90
18105;DHT22;9179;50.968;3.134;2023-11-21T09:59:51;16.20;99.90
18105;DHT22;9179;50.968;3.134;2023-11-21T10:02:22;16.00;99.90
18105;DHT22;9179;50.968;3.134;2023-11-21T10:04:53;15.70;99.90
18105;DHT22;9179;50.968;3.134;2023-11-21T10:07:21;15.40;99.90
18105;DHT22;9179;50.968;3.134;2023-11-21T10:09:48;14.90;99.90
18105;DHT22;9179;50.968;3.134;2023-11-21T10:12:16;14.00;99.90
18105;DHT22;9179;50.968;3.134;2023-11-21T10:14:43;13.60;99.90
18105;DHT22;9179;50.968;3.134;2023-11-21T10:17:14;13.50;99.90
18105;DHT22;9179;50.968;3.134;2023-11-21T10:19:45;13.30;99.90
18105;DHT22;9179;50.968;3.134;2023-11-21T10:22:15;13.10;99.90
18105;DHT22;9179;50.968;3.134;2023-11-21T10:24:42;13.20;99.90
18105;DHT22;9179;50.968;3.134;2023-11-21T10:27:10;13.20;99.90
18105;DHT22;9179;50.968;3.134;2023-11-21T10:29:36;13.30;99.90
18105;DHT22;9179;50.968;3.134;2023-11-21T10:32:03;13.70;99.90
18105;DHT22;9179;50.968;3.134;2023-11-21T10:34:31;14.10;99.90
18105;DHT22;9179;50.968;3.134;2023-11-21T10:36:58;14.20;99.90
18105;DHT22;9179;50.968;3.134;2023-11-21T10:39:27;14.50;99.90
18105;DHT22;9179;50.968;3.134;2023-11-21T10:41:56;14.70;99.90
18105;DHT22;9179;50.968;3.134;2023-11-21T10:44:23;15.10;99.90
18105;DHT22;9179;50.968;3.134;2023-11-21T10:46:52;15.30;99.90
18105;DHT22;9179;50.968;3.134;2023-11-21T10:49:22;15.50;99.90
18105;DHT22;9179;50.968;3.134;2023-11-21T10:51:50;15.60;99.90
18105;DHT22;9179;50.968;3.134;2023-11-21T10:54:19;15.70;99.90
18105;DHT22;9179;50.968;3.134;2023-11-21T10:56:50;15.90;99.90
18105;DHT22;9179;50.968;3.134;2023-11-21T10:59:18;16.10;99.90
18105;DHT22;9179;50.968;3.134;2023-11-21T11:01:47;16.60;99.90
18105;DHT22;9179;50.968;3.134;2023-11-21T11:04:18;17.00;99.90
18105;DHT22;9179;50.968;3.134;2023-11-21T11:06:50;17.10;99.90
18105;DHT22;9179;50.968;3.134;2023-11-21T11:09:18;17.20;99.90
18105;DHT22;9179;50.968;3.134;2023-11-21T11:11:45;17.10;99.90
18105;DHT22;9179;50.968;3.134;2023-11-21T11:14:14;17.30;99.90
18105;DHT22;9179;50.968;3.134;2023-11-21T11:16:42;17.10;99.90
18105;DHT22;9179;50.968;3.134;2023-11-21T11:19:09;16.60;99.90
18105;DHT22;9179;50.968;3.134;2023-11-21T11:21:47;16.30;99.90
18105;DHT22;9179;50.968;3.134;2023-11-21T11:24:39;16.00;99.90
18105;DHT22;9179;50.968;3.134;2023-11-21T11:27:19;15.70;99.90
18105;DHT22;9179;50.968;3.134;2023-11-21T11:29:59;15.40;99.90
18105;DHT22;9179;50.968;3.134;2023-11-21T11:32:43;15.20;99.90
18105;DHT22;9179;50.968;3.134;2023-11-21T11:35:19;15.20;99.90
18105;DHT22;9179;50.968;3.134;2023-11-21T11:37:50;15.30;99.90
18105;DHT22;9179;50.968;3.134;2023-11-21T11:40:17;15.60;99.90
18105;DHT22;9179;50.968;3.134;2023-11-21T11:42:56;15.70;99.90
18105;DHT22;9179;50.968;3.134;2023-11-21T11:45:32;15.70;99.90
18105;DHT22;9179;50.968;3.134;2023-11-21T11:48:01;15.60;99.90
18105;DHT22;9179;50.968;3.134;2023-11-21T11:50:29;15.70;99.90
18105;DHT22;9179;50.968;3.134;2023-11-21T11:53:12;15.80;99.90
18105;DHT22;9179;50.968;3.134;2023-11-21T11:55:39;16.00;99.90
18105;DHT22;9179;50.968;3.134;2023-11-21T11:58:07;16.30;99.90
18105;DHT22;9179;50.968;3.134;2023-11-21T12:00:36;16.20;99.90
18105;DHT22;9179;50.968;3.134;2023-11-21T12:03:09;16.10;99.90
18105;DHT22;9179;50.968;3.134;2023-11-21T12:05:36;15.90;99.90
18105;DHT22;9179;50.968;3.134;2023-11-21T12:08:06;15.70;99.90
18105;DHT22;9179;50.968;3.134;2023-11-21T12:10:36;15.50;99.90
18105;DHT22;9179;50.968;3.134;2023-11-21T12:13:05;15.60;99.90
18105;DHT22;9179;50.968;3.134;2023-11-21T12:15:33;15.40;99.90
18105;DHT22;9179;50.968;3.134;2023-11-21T12:18:02;15.20;99.90
18105;DHT22;9179;50.968;3.134;2023-11-21T12:20:30;14.90;99.90
18105;DHT22;9179;50.968;3.134;2023-11-21T12:22:59;14.60;99.90
18105;DHT22;9179;50.968;3.134;2023-11-21T12:25:27;14.70;99.90
18105;DHT22;9179;50.968;3.134;2023-11-21T12:27:56;15.40;99.90
18105;DHT22;9179;50.968;3.134;2023-11-21T12:30:25;15.90;99.90
18105;DHT22;9179;50.968;3.134;2023-11-21T12:32:55;15.90;99.90
18105;DHT22;9179;50.968;3.134;2023-11-21T12:35:24;16.00;99.90
18105;DHT22;9179;50.968;3.134;2023-11-21T12:37:53;15.90;99.90
18105;DHT22;9179;50.968;3.134;2023-11-21T12:40:23;15.70;99.90
18105;DHT22;9179;50.968;3.134;2023-11-21T12:42:52;15.60;99.90
18105;DHT22;9179;50.968;3.134;2023-11-21T12:45:21;15.30;99.90
18105;DHT22;9179;50.968;3.134;2023-11-21T12:47:52;15.10;99.90
18105;DHT22;9179;50.968;3.134;2023-11-21T12:50:23;15.20;99.90
18105;DHT22;9179;50.968;3.134;2023-11-21T12:52:57;15.30;99.90
18105;DHT22;9179;50.968;3.134;2023-11-21T12:55:25;15.30;99.90
18105;DHT22;9179;50.968;3.134;2023-11-21T12:57:54;15.30;99.90
18105;DHT22;9179;50.968;3.134;2023-11-21T13:00:28;15.30;99.90
18105;DHT22;9179;50.968;3.134;2023-11-21T13:02:59;15.40;99.90
18105;DHT22;9179;50.968;3.134;2023-11-21T13:05:29;15.40;99.90
18105;DHT22;9179;50.968;3.134;2023-11-21T13:07:58;15.50;99.90
18105;DHT22;9179;50.968;3.134;2023-11-21T13:10:29;15.50;99.90
18105;DHT22;9179;50.968;3.134;2023-11-21T13:12:58;15.80;99.90
18105;DHT22;9179;50.968;3.134;2023-11-21T13:15:26;15.50;99.90
18105;DHT22;9179;50.968;3.134;2023-11-21T13:17:54;14.90;99.90
18105;DHT22;9179;50.968;3.134;2023-11-21T13:20:23;14.70;99.90
18105;DHT22;9179;50.968;3.134;2023-11-21T13:22:53;14.50;99.90
18105;DHT22;9179;50.968;3.134;2023-11-21T13:25:23;14.50;99.90
18105;DHT22;9179;50.968;3.134;2023-11-21T13:27:53;14.60;99.90
18105;DHT22;9179;50.968;3.134;2023-11-21T13:30:20;14.60;99.90
18105;DHT22;9179;50.968;3.134;2023-11-21T13:32:52;14.80;99.90
18105;DHT22;9179;50.968;3.134;2023-11-21T13:35:23;15.00;99.90
18105;DHT22;9179;50.968;3.134;2023-11-21T13:38:04;14.90;99.90
18105;DHT22;9179;50.968;3.134;2023-11-21T13:40:32;14.90;99.90
18105;DHT22;9179;50.968;3.134;2023-11-21T13:43:00;15.00;99.90
18105;DHT22;9179;50.968;3.134;2023-11-21T13:45:30;15.00;99.90
18105;DHT22;9179;50.968;3.134;2023-11-21T13:47:57;15.10;99.90
18105;DHT22;9179;50.968;3.134;2023-11-21T13:50:25;15.10;99.90
18105;DHT22;9179;50.968;3.134;2023-11-21T13:52:59;15.00;99.90
18105;DHT22;9179;50.968;3.134;2023-11-21T13:55:34;15.10;99.90
18105;DHT22;9179;50.968;3.134;2023-11-21T13:58:02;15.10;99.90
18105;DHT22;9179;50.968;3.134;2023-11-21T14:00:35;15.10;99.90
18105;DHT22;9179;50.968;3.134;2023-11-21T14:03:12;14.80;99.90
18105;DHT22;9179;50.968;3.134;2023-11-21T14:05:47;14.40;99.90
18105;DHT22;9179;50.968;3.134;2023-11-21T14:08:19;14.20;99.90
18105;DHT22;9179;50.968;3.134;2023-11-21T14:10:49;15.20;99.90
18105;DHT22;9179;50.968;3.134;2023-11-21T14:13:21;16.20;99.90
18105;DHT22;9179;50.968;3.134;2023-11-21T14:15:49;16.40;99.90
18105;DHT22;9179;50.968;3.134;2023-11-21T14:18:19;16.80;99.90
18105;DHT22;9179;50.968;3.134;2023-11-21T14:20:51;17.20;99.90
18105;DHT22;9179;50.968;3.134;2023-11-21T14:23:20;17.80;99.90
18105;DHT22;9179;50.968;3.134;2023-11-21T14:25:49;17.60;99.90
18105;DHT22;9179;50.968;3.134;2023-11-21T14:28:17;17.70;99.90
18105;DHT22;9179;50.968;3.134;2023-11-21T14:30:45;17.70;99.90
18105;DHT22;9179;50.968;3.134;2023-11-21T14:33:12;17.40;99.90
18105;DHT22;9179;50.968;3.134;2023-11-21T14:35:39;17.30;99.90
18105;DHT22;9179;50.968;3.134;2023-11-21T14:38:06;17.50;99.90
18105;DHT22;9179;50.968;3.134;2023-11-21T14:40:34;17.80;99.90
18105;DHT22;9179;50.968;3.134;2023-11-21T14:43:02;18.20;99.90
18105;DHT22;9179;50.968;3.134;2023-11-21T14:45:31;17.90;99.90
18105;DHT22;9179;50.968;3.134;2023-11-21T14:47:58;17.60;99.90
18105;DHT22;9179;50.968;3.134;2023-11-21T14:50:32;16.90;99.90
18105;DHT22;9179;50.968;3.134;2023-11-21T14:53:15;15.70;99.90
18105;DHT22;9179;50.968;3.134;2023-11-21T14:55:43;14.70;99.90
18105;DHT22;9179;50.968;3.134;2023-11-21T14:58:23;14.50;99.90
18105;DHT22;9179;50.968;3.134;2023-11-21T15:00:55;14.30;99.90
18105;DHT22;9179;50.968;3.134;2023-11-21T15:03:27;14.20;99.90
18105;DHT22;9179;50.968;3.134;2023-11-21T15:06:15;13.90;99.90
18105;DHT22;9179;50.968;3.134;2023-11-21T15:08:52;13.30;99.90
18105;DHT22;9179;50.968;3.134;2023-11-21T15:11:26;13.10;99.90
18105;DHT22;9179;50.968;3.134;2023-11-21T15:13:57;12.90;99.90
18105;DHT22;9179;50.968;3.134;2023-11-21T15:16:23;12.80;99.90
18105;DHT22;9179;50.968;3.134;2023-11-21T15:18:51;12.70;99.90
18105;DHT22;9179;50.968;3.134;2023-11-21T15:21:19;12.60;99.90
18105;DHT22;9179;50.968;3.134;2023-11-21T15:23:47;12.50;99.90
18105;DHT22;9179;50.968;3.134;2023-11-21T15:26:14;12.40;99.90
18105;DHT22;9179;50.968;3.134;2023-11-21T15:28:43;12.30;99.90
18105;DHT22;9179;50.968;3.134;2023-11-21T15:31:10;12.20;99.90
18105;DHT22;9179;50.968;3.134;2023-11-21T15:33:37;12.20;99.90
18105;DHT22;9179;50.968;3.134;2023-11-21T15:36:05;12.10;99.90
18105;DHT22;9179;50.968;3.134;2023-11-21T15:38:35;12.10;99.90
18105;DHT22;9179;50.968;3.134;2023-11-21T15:41:03;12.00;99.90
18105;DHT22;9179;50.968;3.134;2023-11-21T15:43:32;12.00;99.90
18105;DHT22;9179;50.968;3.134;2023-11-21T15:46:01;11.90;99.90
18105;DHT22;9179;50.968;3.134;2023-11-21T15:48:33;11.80;99.90
18105;DHT22;9179;50.968;3.134;2023-11-21T15:51:00;11.70;99.90
18105;DHT22;9179;50.968;3.134;2023-11-21T15:53:28;11.60;99.90